createdAt,value
2022-11-29T00:01:38.137Z,1.31
2022-11-29T00:04:45.693Z,1.21
2022-11-29T00:07:51.294Z,1.26
2022-11-29T00:10:58.557Z,1.30
2022-11-29T00:14:06.002Z,1.31
2022-11-29T00:17:13.392Z,1.45
2022-11-29T00:20:20.293Z,1.16
2022-11-29T00:23:26.501Z,1.20
2022-11-29T00:26:34.672Z,1.21
2022-11-29T00:29:44.019Z,1.09
2022-11-29T00:32:50.323Z,1.17
2022-11-29T00:36:01.749Z,1.23
2022-11-29T00:39:07.976Z,1.19
2022-11-29T00:42:14.686Z,1.22
2022-11-29T00:45:22.535Z,1.04
2022-11-29T00:48:30.859Z,1.19
2022-11-29T00:51:41.784Z,1.22
2022-11-29T00:54:48.658Z,1.09
2022-11-29T00:57:58.406Z,1.21
2022-11-29T01:01:06.658Z,1.14
2022-11-29T01:04:14.129Z,1.17
2022-11-29T01:07:21.434Z,1.16
2022-11-29T01:10:28.200Z,1.30
2022-11-29T01:13:35.572Z,1.35
2022-11-29T01:16:41.885Z,1.35
2022-11-29T01:19:50.915Z,1.31
2022-11-29T01:22:58.423Z,1.28
2022-11-29T01:26:10.882Z,1.03
2022-11-29T01:29:18.641Z,1.03
2022-11-29T01:32:24.571Z,1.09
2022-11-29T01:35:33.330Z,0.87
2022-11-29T01:38:41.905Z,0.96
2022-11-29T01:41:48.664Z,1.07
2022-11-29T01:45:16.740Z,0.93
2022-11-29T01:48:28.783Z,0.91
2022-11-29T01:51:40.956Z,0.88
2022-11-29T01:54:53.486Z,0.76
2022-11-29T01:58:03.458Z,0.91
2022-11-29T02:01:09.067Z,0.88
2022-11-29T02:04:17.542Z,0.72
2022-11-29T02:07:24.887Z,0.88
2022-11-29T02:10:47.184Z,0.66
2022-11-29T02:14:07.215Z,0.62
2022-11-29T02:17:32.356Z,0.74
2022-11-29T02:20:43.027Z,0.63
2022-11-29T02:24:06.567Z,0.59
2022-11-29T02:27:26.285Z,0.71
2022-11-29T02:30:34.967Z,0.69
2022-11-29T02:33:46.463Z,0.79
2022-11-29T02:37:11.403Z,0.90
2022-11-29T02:40:34.166Z,0.83
2022-11-29T02:43:38.912Z,0.80
2022-11-29T02:46:55.751Z,0.82
2022-11-29T02:50:14.312Z,0.75
2022-11-29T02:53:39.210Z,0.82
2022-11-29T02:56:48.124Z,0.78
2022-11-29T03:00:02.247Z,0.66
2022-11-29T03:03:16.929Z,0.46
2022-11-29T03:06:28.891Z,0.40
2022-11-29T03:09:35.839Z,0.42
2022-11-29T03:12:48.893Z,0.34
2022-11-29T03:16:11.465Z,0.49
2022-11-29T03:19:24.651Z,0.58
2022-11-29T03:22:33.704Z,0.56
2022-11-29T03:25:46.503Z,0.53
2022-11-29T03:28:56.509Z,0.56
2022-11-29T03:32:11.043Z,0.58
2022-11-29T03:35:21.155Z,0.47
2022-11-29T03:38:44.376Z,0.49
2022-11-29T03:41:53.447Z,0.53
2022-11-29T03:45:09.646Z,0.55
2022-11-29T03:48:20.861Z,0.58
2022-11-29T03:51:30.797Z,0.46
2022-11-29T03:54:53.786Z,0.49
2022-11-29T03:58:22.206Z,0.52
2022-11-29T04:01:52.312Z,0.51
2022-11-29T04:05:29.527Z,0.54
2022-11-29T04:08:40.711Z,0.41
2022-11-29T04:11:56.624Z,0.49
2022-11-29T04:15:23.838Z,0.51
2022-11-29T04:18:34.990Z,0.57
2022-11-29T04:21:51.263Z,0.51
2022-11-29T04:24:59.139Z,0.50
2022-11-29T04:28:08.471Z,0.52
2022-11-29T04:31:40.590Z,0.56
2022-11-29T04:35:06.290Z,0.35
2022-11-29T04:38:18.804Z,0.34
2022-11-29T04:41:26.794Z,0.40
2022-11-29T04:44:53.913Z,0.16
2022-11-29T04:48:22.270Z,0.21
2022-11-29T04:51:32.383Z,0.14
2022-11-29T04:54:37.519Z,0.11
2022-11-29T04:57:51.439Z,0.21
2022-11-29T05:00:59.659Z,0.09
2022-11-29T05:04:13.963Z,0.09
2022-11-29T05:07:29.260Z,0.05
2022-11-29T05:10:47.677Z,0.04
2022-11-29T05:14:02.821Z,0.08
2022-11-29T05:17:21.156Z,0.10
2022-11-29T05:20:44.796Z,0.13
2022-11-29T05:23:54.887Z,0.06
2022-11-29T05:27:00.385Z,0.10
2022-11-29T05:30:16.845Z,0.14
2022-11-29T05:33:25.724Z,0.04
2022-11-29T05:36:40.712Z,0.12
2022-11-29T05:39:58.997Z,0.16
2022-11-29T05:43:44.063Z,0.04
2022-11-29T05:46:58.737Z,0.08
2022-11-29T05:50:04.083Z,0.00
2022-11-29T05:53:32.541Z,0.08
2022-11-29T05:56:47.912Z,0.04
2022-11-29T05:59:55.588Z,0.15
2022-11-29T06:03:15.264Z,0.22
2022-11-29T06:06:29.002Z,0.31
2022-11-29T06:09:50.547Z,0.12
2022-11-29T06:13:14.702Z,0.02
2022-11-29T06:16:21.832Z,0.02
2022-11-29T06:19:33.554Z,-0.03
2022-11-29T06:22:47.130Z,-0.07
2022-11-29T06:26:04.029Z,-0.05
2022-11-29T06:29:26.295Z,-0.06
2022-11-29T06:32:34.958Z,0.00
2022-11-29T06:35:46.661Z,0.03
2022-11-29T06:38:51.002Z,0.19
2022-11-29T06:41:55.607Z,0.30
2022-11-29T06:45:02.110Z,0.30
2022-11-29T06:48:10.466Z,0.29
2022-11-29T06:51:23.416Z,0.30
2022-11-29T06:54:27.384Z,0.22
2022-11-29T06:57:35.036Z,0.16
2022-11-29T07:00:49.113Z,0.25
2022-11-29T07:03:59.768Z,0.25
2022-11-29T07:07:04.346Z,0.25
2022-11-29T07:10:15.085Z,0.43
2022-11-29T07:13:18.877Z,0.61
2022-11-29T07:16:41.867Z,0.64
2022-11-29T07:19:47.126Z,0.74
2022-11-29T07:22:56.986Z,0.57
2022-11-29T07:26:03.631Z,0.61
2022-11-29T07:29:17.430Z,0.81
2022-11-29T07:32:40.248Z,0.47
2022-11-29T07:35:56.181Z,0.30
2022-11-29T07:39:15.259Z,0.21
2022-11-29T07:42:32.682Z,0.39
2022-11-29T07:45:39.100Z,0.22
2022-11-29T07:48:44.381Z,0.39
2022-11-29T07:51:48.164Z,0.50
2022-11-29T07:54:54.121Z,0.62
2022-11-29T07:57:57.842Z,0.57
2022-11-29T08:01:03.004Z,0.70
2022-11-29T08:04:10.024Z,0.86
2022-11-29T08:07:14.001Z,0.84
2022-11-29T08:10:18.657Z,0.94
2022-11-29T08:13:22.530Z,0.77
2022-11-29T08:16:26.829Z,0.60
2022-11-29T08:19:30.139Z,0.55
2022-11-29T08:22:33.803Z,0.68
2022-11-29T08:25:36.784Z,0.68
2022-11-29T08:28:40.977Z,0.79
2022-11-29T08:31:45.506Z,0.90
2022-11-29T08:34:49.619Z,0.74
2022-11-29T08:37:54.577Z,1.11
2022-11-29T08:41:02.587Z,1.00
2022-11-29T08:44:07.356Z,0.93
2022-11-29T08:47:31.422Z,1.07
2022-11-29T08:50:36.623Z,0.90
2022-11-29T08:53:44.425Z,1.04
2022-11-29T09:00:13.150Z,1.02
2022-11-29T09:03:35.819Z,0.97
2022-11-29T09:06:42.476Z,0.92
2022-11-29T09:09:46.578Z,1.11
2022-11-29T09:12:53.261Z,1.22
2022-11-29T09:15:57.827Z,1.17
2022-11-29T09:19:02.992Z,1.00
2022-11-29T09:22:06.714Z,0.84
2022-11-29T09:25:11.441Z,0.71
2022-11-29T09:28:14.899Z,0.87
2022-11-29T09:31:18.115Z,0.78
2022-11-29T09:34:24.335Z,0.76
2022-11-29T09:37:29.154Z,0.74
2022-11-29T09:40:39.464Z,0.73
2022-11-29T09:44:01.485Z,0.84
2022-11-29T09:47:14.057Z,0.80
2022-11-29T09:50:17.379Z,0.94
2022-11-29T09:53:31.709Z,1.16
2022-11-29T09:56:39.445Z,0.94
2022-11-29T09:59:46.310Z,0.98
2022-11-29T10:03:01.789Z,0.92
2022-11-29T10:06:14.785Z,1.01
2022-11-29T10:09:23.493Z,1.44
2022-11-29T10:12:39.302Z,1.41
2022-11-29T10:15:44.522Z,1.44
2022-11-29T10:18:55.455Z,1.43
2022-11-29T10:22:28.274Z,1.24
2022-11-29T10:25:34.615Z,1.68
2022-11-29T10:28:38.002Z,1.75
2022-11-29T10:31:44.264Z,1.93
2022-11-29T10:34:49.183Z,1.86
2022-11-29T10:38:22.562Z,1.95
2022-11-29T10:41:22.595Z,1.42
2022-11-29T10:44:28.042Z,1.72
2022-11-29T10:47:32.603Z,1.93
2022-11-29T10:50:37.487Z,2.05
2022-11-29T10:53:41.462Z,1.96
2022-11-29T10:56:46.391Z,1.92
2022-11-29T11:00:04.795Z,1.74
2022-11-29T11:03:17.725Z,1.88
2022-11-29T11:06:21.487Z,1.87
2022-11-29T11:09:43.055Z,1.86
2022-11-29T11:13:01.294Z,1.48
2022-11-29T11:16:17.801Z,1.50
2022-11-29T11:19:22.595Z,1.57
2022-11-29T11:22:26.975Z,1.88
2022-11-29T11:25:38.358Z,1.83
2022-11-29T11:28:50.234Z,1.98
2022-11-29T11:31:58.060Z,1.97
2022-11-29T11:35:02.439Z,1.82
2022-11-29T11:38:05.842Z,2.04
2022-11-29T11:41:59.334Z,2.12
2022-11-29T11:45:03.696Z,2.08
2022-11-29T11:48:14.854Z,2.11
2022-11-29T11:51:24.365Z,2.03
2022-11-29T11:54:29.243Z,2.18
2022-11-29T11:57:32.018Z,2.26
2022-11-29T12:01:03.025Z,2.08
2022-11-29T12:04:21.057Z,1.97
2022-11-29T12:08:07.428Z,1.81
2022-11-29T12:11:10.514Z,1.85
2022-11-29T12:14:24.558Z,1.80
2022-11-29T12:17:40.933Z,1.81
2022-11-29T12:20:50.373Z,1.84
2022-11-29T12:24:00.020Z,1.81
2022-11-29T12:27:06.077Z,1.64
2022-11-29T12:30:13.226Z,1.83
2022-11-29T12:33:32.295Z,1.73
2022-11-29T12:36:38.704Z,1.69
2022-11-29T12:39:48.759Z,1.96
2022-11-29T12:43:11.372Z,1.92
2022-11-29T12:46:28.179Z,1.95
2022-11-29T12:49:54.290Z,1.98
2022-11-29T12:53:03.044Z,2.02
2022-11-29T12:56:24.193Z,2.12
2022-11-29T12:59:26.530Z,2.11
2022-11-29T13:02:35.253Z,2.00
2022-11-29T13:05:37.529Z,2.29
2022-11-29T13:08:54.193Z,2.26
2022-11-29T13:12:23.073Z,2.23
2022-11-29T13:15:38.260Z,2.27
2022-11-29T13:18:43.627Z,2.24
2022-11-29T13:21:52.733Z,2.39
2022-11-29T13:25:01.286Z,2.49
2022-11-29T13:28:22.291Z,2.40
2022-11-29T13:31:25.632Z,2.28
2022-11-29T13:34:36.277Z,2.24
2022-11-29T13:37:57.589Z,2.44
2022-11-29T13:41:26.779Z,2.25
2022-11-29T13:44:48.531Z,2.10
2022-11-29T13:47:53.195Z,2.13
2022-11-29T13:50:58.544Z,2.21
2022-11-29T13:54:03.225Z,2.13
2022-11-29T13:57:07.720Z,2.21
2022-11-29T14:00:29.038Z,2.29
2022-11-29T14:03:39.698Z,2.46
2022-11-29T14:06:46.907Z,2.47
2022-11-29T14:10:26.400Z,2.40
2022-11-29T14:13:37.936Z,2.51
2022-11-29T14:16:45.824Z,2.52
2022-11-29T14:19:51.018Z,2.57
2022-11-29T14:23:05.148Z,2.41
2022-11-29T14:26:11.702Z,2.45
2022-11-29T14:29:34.894Z,2.45
2022-11-29T14:32:42.791Z,2.33
2022-11-29T14:35:57.249Z,2.18
2022-11-29T14:39:19.560Z,2.28
2022-11-29T14:42:24.881Z,2.28
2022-11-29T14:45:29.797Z,2.27
2022-11-29T14:48:37.814Z,2.16
2022-11-29T14:52:02.639Z,2.10
2022-11-29T14:55:18.023Z,2.11
2022-11-29T14:58:23.889Z,2.19
2022-11-29T15:01:28.704Z,2.36
2022-11-29T15:04:40.060Z,2.13
2022-11-29T15:07:47.440Z,2.29
2022-11-29T15:10:54.552Z,2.32
2022-11-29T15:14:04.643Z,2.35
2022-11-29T15:17:18.266Z,2.42
2022-11-29T15:20:38.284Z,2.35
2022-11-29T15:23:43.951Z,2.24
2022-11-29T15:27:18.425Z,2.16
2022-11-29T15:30:34.044Z,2.12
2022-11-29T15:33:39.684Z,2.19
2022-11-29T15:36:45.562Z,2.13
2022-11-29T15:40:01.176Z,2.23
2022-11-29T15:43:20.082Z,2.09
2022-11-29T15:46:26.398Z,2.08
2022-11-29T15:49:32.039Z,2.07
2022-11-29T15:52:38.441Z,2.14
2022-11-29T15:55:43.146Z,2.15
2022-11-29T15:58:53.549Z,2.10
2022-11-29T16:02:01.138Z,2.07
2022-11-29T16:05:10.470Z,2.07
2022-11-29T16:08:18.844Z,2.10
2022-11-29T16:11:26.076Z,2.03
2022-11-29T16:14:31.249Z,2.03
2022-11-29T16:17:38.180Z,2.05
2022-11-29T16:21:00.793Z,2.18
2022-11-29T16:24:22.987Z,2.17
2022-11-29T16:27:28.518Z,2.05
2022-11-29T16:30:35.479Z,2.03
2022-11-29T16:33:40.762Z,1.98
2022-11-29T16:36:47.444Z,1.94
2022-11-29T16:39:58.046Z,1.87
2022-11-29T16:43:03.944Z,1.91
2022-11-29T16:46:28.329Z,1.90
2022-11-29T16:49:38.023Z,1.99
2022-11-29T16:52:44.120Z,1.89
2022-11-29T16:55:53.054Z,1.99
2022-11-29T16:59:25.150Z,1.98
2022-11-29T17:02:33.856Z,1.98
2022-11-29T17:05:44.534Z,1.95
2022-11-29T17:08:54.960Z,2.05
2022-11-29T17:12:04.363Z,2.14
2022-11-29T17:15:09.955Z,2.15
2022-11-29T17:18:16.139Z,2.15
2022-11-29T17:21:24.245Z,2.32
2022-11-29T17:24:29.661Z,2.18
2022-11-29T17:27:37.846Z,2.28
2022-11-29T17:30:46.014Z,2.35
2022-11-29T17:33:55.108Z,2.31
2022-11-29T17:37:04.603Z,2.34
2022-11-29T17:40:15.892Z,2.39
2022-11-29T17:43:22.700Z,2.27
2022-11-29T17:46:33.227Z,2.33
2022-11-29T17:49:39.189Z,2.50
2022-11-29T17:52:46.941Z,2.53
2022-11-29T17:55:52.316Z,2.42
2022-11-29T17:59:00.390Z,2.46
2022-11-29T18:02:06.609Z,2.37
2022-11-29T18:05:13.181Z,2.30
2022-11-29T18:08:20.777Z,2.28
2022-11-29T18:11:41.642Z,2.34
2022-11-29T18:14:53.128Z,2.42
2022-11-29T18:17:58.887Z,2.40
2022-11-29T18:21:06.322Z,2.35
2022-11-29T18:24:13.980Z,2.43
2022-11-29T18:27:22.158Z,2.47
2022-11-29T18:30:28.931Z,2.47
2022-11-29T18:33:36.329Z,2.32
2022-11-29T18:36:48.426Z,2.31
2022-11-29T18:39:55.856Z,2.26
2022-11-29T18:43:04.685Z,2.35
2022-11-29T18:46:15.388Z,2.29
2022-11-29T18:49:24.064Z,2.31
2022-11-29T18:52:30.583Z,2.28
2022-11-29T18:55:37.745Z,2.34
2022-11-29T18:58:46.200Z,2.34
2022-11-29T19:01:53.022Z,2.30
2022-11-29T19:05:02.493Z,2.25
2022-11-29T19:08:11.719Z,2.49
2022-11-29T19:11:21.728Z,2.45
2022-11-29T19:14:33.346Z,2.45
2022-11-29T19:17:43.328Z,2.41
2022-11-29T19:20:53.071Z,2.41
2022-11-29T19:24:01.758Z,2.47
2022-11-29T19:27:09.031Z,2.55
2022-11-29T19:30:18.496Z,2.50
2022-11-29T19:33:25.498Z,2.46
2022-11-29T19:36:35.050Z,2.34
2022-11-29T19:39:40.745Z,2.42
2022-11-29T19:42:49.052Z,2.64
2022-11-29T19:45:56.808Z,2.51
2022-11-29T19:49:04.879Z,2.49
2022-11-29T19:52:13.194Z,2.40
2022-11-29T19:55:19.907Z,2.37
2022-11-29T19:58:29.168Z,2.39
2022-11-29T20:01:43.424Z,2.42
2022-11-29T20:04:50.659Z,2.42
2022-11-29T20:07:54.787Z,2.44
2022-11-29T20:11:07.962Z,2.23
2022-11-29T20:14:13.041Z,2.27
2022-11-29T20:17:19.401Z,2.38
2022-11-29T20:20:26.333Z,2.30
2022-11-29T20:23:32.831Z,2.28
2022-11-29T20:26:38.342Z,2.24
2022-11-29T20:29:46.556Z,2.31
2022-11-29T20:32:51.925Z,2.16
2022-11-29T20:36:08.440Z,2.14
2022-11-29T20:39:13.710Z,2.14
2022-11-29T20:42:28.241Z,2.11
2022-11-29T20:45:35.115Z,2.16
2022-11-29T20:48:42.631Z,2.06
2022-11-29T20:51:54.775Z,2.06
2022-11-29T20:55:01.173Z,2.13
2022-11-29T20:58:08.913Z,2.19
2022-11-29T21:01:14.854Z,2.07
2022-11-29T21:04:23.671Z,2.24
2022-11-29T21:07:30.707Z,2.28
2022-11-29T21:10:36.431Z,2.40
2022-11-29T21:13:44.220Z,2.37
2022-11-29T21:16:49.796Z,2.29
2022-11-29T21:19:59.372Z,2.26
2022-11-29T21:23:11.013Z,2.30
2022-11-29T21:26:22.143Z,2.23
2022-11-29T21:29:28.115Z,2.26
2022-11-29T21:32:36.485Z,2.30
2022-11-29T21:35:46.476Z,2.27
2022-11-29T21:39:00.851Z,2.31
2022-11-29T21:42:09.278Z,2.27
2022-11-29T21:45:16.214Z,2.28
2022-11-29T21:48:42.074Z,2.35
2022-11-29T21:51:48.636Z,2.36
2022-11-29T21:54:52.287Z,2.44
2022-11-29T21:57:55.569Z,2.45
2022-11-29T22:01:09.186Z,2.30
2022-11-29T22:04:14.104Z,2.39
2022-11-29T22:07:22.186Z,2.44
2022-11-29T22:10:28.463Z,2.57
2022-11-29T22:13:31.479Z,2.36
2022-11-29T22:16:35.175Z,2.33
2022-11-29T22:19:39.860Z,2.39
2022-11-29T22:22:49.235Z,2.32
2022-11-29T22:25:56.217Z,2.37
2022-11-29T22:29:06.631Z,2.36
2022-11-29T22:32:12.046Z,2.30
2022-11-29T22:35:18.703Z,2.30
2022-11-29T22:38:21.825Z,2.33
2022-11-29T22:41:26.738Z,2.26
2022-11-29T22:44:30.904Z,2.30
2022-11-29T22:47:35.633Z,2.46
2022-11-29T22:50:41.526Z,2.44
2022-11-29T22:53:54.022Z,2.49
2022-11-29T22:56:58.151Z,2.46
2022-11-29T23:00:04.477Z,2.47
2022-11-29T23:03:10.612Z,2.43
2022-11-29T23:06:17.343Z,2.41
2022-11-29T23:09:23.095Z,2.57
2022-11-29T23:12:29.162Z,2.38
2022-11-29T23:15:33.854Z,2.50
2022-11-29T23:18:42.247Z,2.74
2022-11-29T23:21:50.316Z,2.71
2022-11-29T23:25:01.391Z,2.60
2022-11-29T23:28:10.319Z,2.53
2022-11-29T23:31:22.322Z,2.54
2022-11-29T23:34:30.118Z,2.62
2022-11-29T23:37:36.210Z,2.51
2022-11-29T23:40:42.382Z,2.48
2022-11-29T23:43:48.129Z,2.46
2022-11-29T23:46:52.807Z,2.59
2022-11-29T23:50:02.326Z,2.55
2022-11-29T23:53:08.783Z,2.50
2022-11-29T23:56:16.442Z,2.51
2022-11-29T23:59:22.850Z,2.49
